Montrose Heights, Virginia
Current Conditions -  °F | °C
As of 1:54 PM on Friday 31 Oct 2014 (Local Time) from KRIC Reporting Station
Broken Clouds Broken Clouds  
Wind Chill: 62°   Ceiling: 4900
Heat Index: 62°   Visibility: 10mi
Dew Point: 37°   Wind: 10mph
Humidity: 39%   Direction: 10°N
Pressure: 29.88"   Gusts: NA
Location:  37.4458°N, 77.3237°W
Report Text: KRIC 311754Z 01009KT 10SM BKN049 BKN220 17/03 A2988 RMK AO2 SLP123 T01670028 10167 20072 58023
Loading
Personal Weather Stations






























Interactive Weather Map
Tropical Storm Tracking
New forecast layout! Learn more

10-Day Weather Forecast

Advertisements
Track Severe Weather on mobile